createdAt,value
2018-03-20T07:49:48.278Z,983.48
2018-03-20T07:50:48.152Z,983.43
2018-03-20T07:52:43.444Z,983.55
2018-03-20T07:53:43.311Z,983.49
2018-03-20T07:55:38.604Z,983.59
2018-03-20T07:56:38.453Z,983.60
2018-03-20T07:58:33.736Z,983.72
2018-03-20T07:59:33.628Z,983.61
2018-03-20T08:01:28.866Z,983.62
2018-03-20T08:02:28.797Z,983.66
2018-03-20T08:04:24.032Z,983.73
2018-03-20T08:05:23.913Z,983.74
2018-03-20T08:07:19.157Z,983.73
2018-03-20T08:08:19.079Z,983.81
2018-03-20T08:10:14.374Z,983.82
2018-03-20T08:11:14.243Z,983.67
2018-03-20T08:13:09.530Z,984.05
2018-03-20T08:14:09.406Z,983.79
2018-03-20T08:16:04.666Z,983.80
2018-03-20T08:17:04.581Z,983.86
2018-03-20T08:18:59.851Z,984.04
2018-03-20T08:19:59.768Z,983.85
2018-03-20T08:21:56.148Z,983.65
2018-03-20T08:22:55.739Z,983.94
2018-03-20T08:24:51.018Z,984.05
2018-03-20T08:25:50.895Z,983.99
2018-03-20T08:27:46.177Z,983.99
2018-03-20T08:28:46.047Z,984.03
2018-03-20T08:30:42.210Z,984.06
2018-03-20T08:31:42.075Z,984.14
2018-03-20T08:33:38.252Z,984.08
2018-03-20T08:34:38.129Z,984.23
2018-03-20T08:36:34.264Z,984.28
2018-03-20T08:37:34.134Z,984.17
2018-03-20T08:39:29.407Z,984.28
2018-03-20T08:40:29.291Z,984.21
2018-03-20T08:42:24.579Z,984.22
2018-03-20T08:43:24.488Z,984.18
2018-03-20T08:45:19.793Z,984.29
2018-03-20T08:46:19.658Z,984.37
2018-03-20T08:48:14.983Z,984.26
2018-03-20T08:49:14.860Z,984.52
2018-03-20T08:51:10.144Z,984.51
2018-03-20T08:52:10.045Z,984.66
2018-03-20T08:54:05.349Z,984.51
2018-03-20T08:55:05.218Z,984.65
2018-03-20T08:57:01.364Z,984.53
2018-03-20T08:58:01.273Z,984.56
2018-03-20T08:59:57.425Z,984.58
2018-03-20T09:00:57.311Z,984.44
2018-03-20T09:02:52.574Z,984.57
2018-03-20T09:03:52.488Z,984.64
2018-03-20T09:05:47.788Z,984.76
2018-03-20T09:06:47.651Z,984.70
2018-03-20T09:08:43.752Z,984.73
2018-03-20T09:09:43.667Z,984.77
2018-03-20T09:11:38.972Z,984.74
2018-03-20T09:12:38.859Z,984.76
2018-03-20T09:14:34.157Z,984.74
2018-03-20T09:15:34.045Z,984.72
2018-03-20T09:17:29.323Z,984.75
2018-03-20T09:18:29.208Z,984.70
2018-03-20T09:20:24.522Z,984.69
2018-03-20T09:21:24.407Z,984.73
2018-03-20T09:23:19.688Z,984.79
2018-03-20T09:24:19.600Z,984.60
2018-03-20T09:26:14.892Z,984.82
2018-03-20T09:27:14.794Z,984.85
2018-03-20T09:29:10.071Z,984.90
2018-03-20T09:30:09.962Z,984.81
2018-03-20T09:32:05.201Z,984.94
2018-03-20T09:33:05.142Z,984.86
2018-03-20T09:35:00.401Z,984.86
2018-03-20T09:36:00.323Z,984.90
2018-03-20T09:37:56.462Z,984.96
2018-03-20T09:38:56.360Z,984.90
2018-03-20T09:40:52.514Z,984.95
2018-03-20T09:41:52.392Z,984.86
2018-03-20T09:43:47.722Z,984.89
2018-03-20T09:44:47.565Z,984.90
2018-03-20T09:46:42.869Z,984.99
2018-03-20T09:47:42.750Z,984.87
2018-03-20T09:49:38.061Z,984.95
2018-03-20T09:50:37.934Z,984.88
2018-03-20T09:52:33.188Z,984.97
2018-03-20T09:53:33.104Z,984.97
2018-03-20T09:55:28.408Z,984.95
2018-03-20T09:56:28.275Z,984.77
2018-03-20T09:58:23.545Z,984.94
2018-03-20T09:59:23.467Z,984.96
2018-03-20T10:01:18.770Z,985.03
2018-03-20T10:02:18.615Z,984.87
2018-03-20T10:04:13.913Z,984.95
2018-03-20T10:05:13.808Z,984.97
2018-03-20T10:07:10.006Z,984.96
2018-03-20T10:08:09.875Z,985.00
2018-03-20T10:10:05.137Z,985.08
2018-03-20T10:11:05.054Z,985.25
2018-03-20T10:13:00.344Z,985.24
2018-03-20T10:14:00.218Z,985.20
2018-03-20T10:15:55.483Z,985.31
2018-03-20T10:16:55.387Z,985.26
2018-03-20T10:18:50.678Z,985.36
2018-03-20T10:19:50.558Z,985.42
2018-03-20T10:21:45.801Z,985.37
2018-03-20T10:22:45.736Z,985.38
2018-03-20T10:24:40.995Z,985.17
2018-03-20T10:25:40.879Z,985.36
2018-03-20T10:27:36.406Z,985.33
2018-03-20T10:28:36.274Z,985.37
2018-03-20T10:30:31.517Z,985.37
2018-03-20T10:31:31.444Z,985.31
2018-03-20T10:33:26.749Z,985.33
2018-03-20T10:34:26.618Z,985.35
2018-03-20T10:36:22.805Z,985.33
2018-03-20T10:37:22.669Z,985.55
2018-03-20T10:39:17.954Z,985.58
2018-03-20T10:40:17.860Z,985.44
2018-03-20T10:42:13.173Z,985.40
2018-03-20T10:43:13.049Z,985.43
2018-03-20T10:45:08.418Z,985.46
2018-03-20T10:46:08.275Z,985.43
2018-03-20T10:48:03.551Z,985.55
2018-03-20T10:49:03.463Z,985.54
2018-03-20T10:50:58.749Z,985.47
2018-03-20T10:51:58.644Z,985.56
2018-03-20T10:53:53.892Z,985.78
2018-03-20T10:54:53.801Z,985.86
2018-03-20T10:56:49.085Z,985.76
2018-03-20T10:57:48.983Z,985.82
2018-03-20T10:59:44.224Z,985.76
2018-03-20T11:00:44.148Z,985.68
2018-03-20T11:02:39.409Z,985.79
2018-03-20T11:03:39.323Z,985.77
2018-03-20T11:05:34.587Z,985.59
2018-03-20T11:06:34.538Z,985.68
2018-03-20T11:08:29.737Z,985.65
2018-03-20T11:09:29.653Z,985.66
2018-03-20T11:11:24.966Z,985.67
2018-03-20T11:12:24.832Z,985.67
2018-03-20T11:14:20.144Z,985.68
2018-03-20T11:15:20.013Z,985.57
2018-03-20T11:17:15.275Z,985.62
2018-03-20T11:18:15.183Z,985.62
2018-03-20T11:20:10.473Z,985.73
2018-03-20T11:21:10.370Z,985.66
2018-03-20T11:23:05.635Z,985.71
2018-03-20T11:24:05.548Z,985.71
2018-03-20T11:26:00.830Z,985.88
2018-03-20T11:27:00.738Z,985.76
2018-03-20T11:28:56.046Z,985.91
2018-03-20T11:29:55.952Z,985.84
2018-03-20T11:31:51.212Z,985.68
2018-03-20T11:32:51.100Z,985.75
2018-03-20T11:34:46.408Z,985.70
2018-03-20T11:35:46.303Z,985.80
2018-03-20T11:36:46.245Z,985.74
2018-03-20T11:37:46.158Z,985.80
2018-03-20T11:38:46.094Z,985.64
2018-03-20T11:39:46.031Z,985.77
2018-03-20T11:40:45.938Z,985.59
2018-03-20T11:41:45.868Z,985.79
2018-03-20T11:42:45.815Z,985.90
2018-03-20T11:43:45.740Z,985.77
2018-03-20T11:44:45.673Z,985.75
2018-03-20T11:45:45.582Z,985.68
2018-03-20T11:46:45.515Z,985.86
2018-03-20T11:47:45.460Z,985.93
2018-03-20T11:48:45.384Z,985.72
2018-03-20T11:49:45.296Z,985.87
2018-03-20T11:50:45.249Z,985.79
2018-03-20T11:51:45.166Z,985.72
2018-03-20T11:52:45.085Z,985.79
2018-03-20T11:53:45.009Z,985.91
2018-03-20T11:54:44.961Z,985.93
2018-03-20T11:55:44.898Z,985.84
2018-03-20T11:56:44.826Z,985.75
2018-03-20T11:57:44.727Z,985.84
2018-03-20T11:58:46.475Z,985.95
2018-03-20T11:59:44.596Z,985.88
2018-03-20T12:00:44.512Z,985.84
2018-03-20T12:01:44.440Z,985.82
2018-03-20T12:02:44.368Z,986.02
2018-03-20T12:03:44.353Z,985.88
2018-03-20T12:04:44.226Z,985.98
2018-03-20T12:05:44.153Z,985.91
2018-03-20T12:06:44.097Z,985.86
2018-03-20T12:07:44.016Z,985.92
2018-03-20T12:08:43.958Z,985.94
2018-03-20T12:09:43.873Z,985.90
2018-03-20T12:10:43.796Z,986.09
2018-03-20T12:11:43.740Z,985.95
2018-03-20T12:12:43.688Z,985.97
2018-03-20T12:13:43.600Z,986.00
2018-03-20T12:14:43.517Z,985.81
2018-03-20T12:15:43.440Z,986.20
2018-03-20T12:16:43.387Z,985.89
2018-03-20T12:17:43.300Z,986.05
2018-03-20T12:18:43.224Z,985.93
2018-03-20T12:19:43.158Z,985.80
2018-03-20T12:20:43.109Z,986.03
2018-03-20T12:21:43.045Z,986.02
2018-03-20T12:22:42.958Z,985.99
2018-03-20T12:23:42.868Z,986.04
2018-03-20T12:24:42.809Z,985.87
2018-03-20T12:25:42.725Z,986.04
2018-03-20T12:26:42.677Z,986.03
2018-03-20T12:27:42.597Z,986.01
2018-03-20T12:28:42.527Z,986.26
2018-03-20T12:29:42.438Z,986.03
2018-03-20T12:30:42.389Z,986.04
2018-03-20T12:31:42.313Z,985.95
2018-03-20T12:32:42.224Z,986.02
2018-03-20T12:33:42.167Z,986.03
2018-03-20T12:34:42.086Z,985.98
2018-03-20T12:35:42.035Z,986.02
2018-03-20T12:36:41.957Z,986.03
2018-03-20T12:37:41.872Z,985.99
2018-03-20T12:38:41.794Z,986.09
2018-03-20T12:39:41.764Z,986.14
2018-03-20T12:40:41.650Z,986.15
2018-03-20T12:41:41.623Z,986.11
2018-03-20T12:42:41.515Z,986.25
2018-03-20T12:43:41.457Z,986.08
2018-03-20T12:44:41.381Z,985.98
2018-03-20T12:45:41.296Z,986.04
2018-03-20T12:46:41.269Z,986.11
2018-03-20T12:47:41.167Z,986.16
2018-03-20T12:48:41.076Z,986.02
2018-03-20T12:49:41.026Z,986.12
2018-03-20T12:50:40.939Z,986.07
2018-03-20T12:51:40.887Z,985.93
2018-03-20T12:52:40.804Z,986.15
2018-03-20T12:53:40.736Z,986.09
2018-03-20T12:54:40.646Z,986.28
2018-03-20T12:55:40.601Z,986.14
2018-03-20T12:56:40.526Z,986.40
2018-03-20T12:57:40.504Z,986.24
2018-03-20T12:58:40.360Z,986.26
2018-03-20T12:59:40.298Z,986.14
2018-03-20T13:00:40.237Z,986.17
2018-03-20T13:01:40.153Z,986.19
2018-03-20T13:02:40.084Z,986.16
2018-03-20T13:03:40.012Z,986.30
2018-03-20T13:04:39.965Z,986.26
2018-03-20T13:05:39.856Z,986.39
2018-03-20T13:06:39.793Z,986.67
2018-03-20T13:07:39.735Z,986.20
2018-03-20T13:08:39.638Z,986.39
2018-03-20T13:09:39.584Z,986.41
2018-03-20T13:10:39.511Z,986.44
2018-03-20T13:11:39.439Z,986.37
2018-03-20T13:12:39.437Z,986.43
2018-03-20T13:13:39.274Z,986.37
2018-03-20T13:14:39.207Z,986.53
2018-03-20T13:15:39.134Z,986.47
2018-03-20T13:16:39.114Z,986.34
2018-03-20T13:17:38.990Z,986.32
2018-03-20T13:18:38.952Z,986.69
2018-03-20T13:19:38.851Z,986.43
2018-03-20T13:20:38.779Z,986.53
2018-03-20T13:21:38.724Z,986.43
2018-03-20T13:22:38.639Z,986.53
2018-03-20T13:23:38.582Z,986.64
2018-03-20T13:24:38.501Z,986.57
2018-03-20T13:25:38.431Z,986.76
2018-03-20T13:26:38.360Z,986.54
2018-03-20T13:27:38.270Z,986.54
2018-03-20T13:28:38.209Z,986.77
2018-03-20T13:29:38.139Z,986.60
2018-03-20T13:30:38.061Z,986.64
2018-03-20T13:31:37.999Z,986.55
2018-03-20T13:32:37.905Z,986.75
2018-03-20T13:33:37.853Z,986.59
2018-03-20T13:34:37.832Z,986.62
2018-03-20T13:35:37.706Z,986.86
2018-03-20T13:36:37.641Z,986.70
2018-03-20T13:37:37.581Z,986.75
2018-03-20T13:38:37.468Z,986.77
2018-03-20T13:39:37.421Z,986.98
2018-03-20T13:40:37.336Z,986.73
2018-03-20T13:41:37.260Z,986.71
2018-03-20T13:42:37.199Z,986.51
2018-03-20T13:43:37.114Z,986.84
2018-03-20T13:44:37.042Z,986.99
2018-03-20T13:45:36.983Z,987.16
2018-03-20T13:46:36.890Z,987.07
2018-03-20T13:47:36.836Z,987.22
2018-03-20T13:48:36.743Z,987.01
2018-03-20T13:49:36.688Z,986.95
2018-03-20T13:50:36.621Z,987.10
2018-03-20T13:51:36.544Z,987.31
2018-03-20T13:52:36.465Z,987.12
2018-03-20T13:53:36.414Z,987.15
2018-03-20T13:54:36.343Z,987.08
2018-03-20T13:55:36.255Z,987.21
2018-03-20T13:56:36.182Z,987.25
2018-03-20T13:57:36.115Z,987.38
2018-03-20T13:58:36.021Z,987.34
2018-03-20T13:59:35.949Z,987.24
2018-03-20T14:00:35.894Z,987.37
2018-03-20T14:01:35.804Z,987.18
2018-03-20T14:02:35.782Z,987.52
2018-03-20T14:03:35.688Z,987.33
2018-03-20T14:04:35.624Z,987.26
2018-03-20T14:05:35.521Z,987.27
2018-03-20T14:06:35.447Z,987.25
2018-03-20T14:07:35.401Z,987.44
2018-03-20T14:08:35.302Z,987.39
2018-03-20T14:09:35.239Z,987.38
2018-03-20T14:10:35.155Z,987.23
2018-03-20T14:11:35.093Z,987.57
2018-03-20T14:12:35.018Z,987.42
2018-03-20T14:13:34.951Z,987.53
2018-03-20T14:14:34.869Z,987.35
2018-03-20T14:15:34.810Z,987.34
2018-03-20T14:16:34.711Z,987.69
2018-03-20T14:17:34.663Z,987.54
2018-03-20T14:18:34.576Z,987.78
2018-03-20T14:19:34.502Z,987.66
2018-03-20T14:20:34.467Z,987.57
2018-03-20T14:21:34.377Z,987.60
2018-03-20T14:22:34.280Z,987.56
2018-03-20T14:23:34.206Z,987.55
2018-03-20T14:24:34.153Z,987.50
2018-03-20T14:25:34.090Z,987.59
2018-03-20T14:26:34.020Z,987.57
2018-03-20T14:27:34.046Z,987.65
2018-03-20T14:28:33.891Z,987.55
2018-03-20T14:29:33.791Z,987.87
2018-03-20T14:30:33.717Z,987.74
2018-03-20T14:31:33.632Z,987.80
2018-03-20T14:32:33.561Z,987.80
2018-03-20T14:33:33.483Z,987.70
2018-03-20T14:34:33.414Z,988.02
2018-03-20T14:35:33.340Z,987.85
2018-03-20T14:36:33.336Z,987.92
2018-03-20T14:37:33.205Z,987.65
2018-03-20T14:38:33.115Z,987.86
2018-03-20T14:39:33.043Z,987.89
2018-03-20T14:40:32.994Z,987.53
2018-03-20T14:41:32.938Z,987.74
2018-03-20T14:42:32.852Z,987.68
2018-03-20T14:43:32.750Z,987.61
2018-03-20T14:44:32.703Z,987.41
2018-03-20T14:45:32.618Z,987.55
2018-03-20T14:46:32.545Z,987.56
2018-03-20T14:47:32.478Z,987.43
2018-03-20T14:48:32.404Z,987.50
2018-03-20T14:49:32.372Z,987.51
2018-03-20T14:50:32.247Z,987.55
2018-03-20T14:51:32.168Z,987.43
2018-03-20T14:52:32.122Z,987.53
2018-03-20T14:53:32.028Z,987.42
2018-03-20T14:54:31.979Z,987.08
2018-03-20T14:55:31.880Z,987.35
2018-03-20T14:56:31.820Z,987.20
2018-03-20T14:57:31.758Z,987.50
2018-03-20T14:58:31.668Z,987.04
2018-03-20T14:59:31.595Z,986.98
2018-03-20T15:00:31.516Z,986.97
2018-03-20T15:01:31.462Z,987.08
2018-03-20T15:02:31.388Z,987.36
2018-03-20T15:03:31.293Z,987.17
2018-03-20T15:04:31.224Z,987.25
2018-03-20T15:05:31.148Z,987.24
2018-03-20T15:06:31.074Z,987.61
2018-03-20T15:07:31.006Z,987.43
2018-03-20T15:08:30.930Z,987.25
2018-03-20T15:09:30.858Z,987.63
2018-03-20T15:10:30.780Z,987.63
2018-03-20T15:11:30.741Z,987.74
2018-03-20T15:12:30.650Z,987.57
2018-03-20T15:13:30.560Z,987.88
2018-03-20T15:14:30.512Z,987.64
2018-03-20T15:15:30.410Z,987.75
2018-03-20T15:16:30.358Z,987.78
2018-03-20T15:17:30.267Z,987.97
2018-03-20T15:18:30.215Z,988.01
2018-03-20T15:19:30.124Z,988.09
2018-03-20T15:20:30.067Z,987.93
2018-03-20T15:21:29.982Z,988.11
2018-03-20T15:22:29.921Z,987.91
2018-03-20T15:23:29.868Z,988.02
2018-03-20T15:24:29.752Z,987.97
2018-03-20T15:25:29.683Z,988.16
2018-03-20T15:26:29.614Z,987.96
2018-03-20T15:27:29.542Z,988.24
2018-03-20T15:28:29.469Z,988.21
2018-03-20T15:29:29.392Z,988.22
2018-03-20T15:30:29.331Z,988.25
2018-03-20T15:31:29.246Z,988.57
2018-03-20T15:32:29.184Z,988.41
2018-03-20T15:33:29.109Z,988.33
2018-03-20T15:34:29.016Z,988.39
2018-03-20T15:35:28.962Z,988.38
2018-03-20T15:36:28.907Z,988.59
2018-03-20T15:37:28.815Z,988.58
2018-03-20T15:38:28.739Z,988.61
2018-03-20T15:39:28.653Z,988.63
2018-03-20T15:40:28.593Z,988.55
2018-03-20T15:41:28.532Z,988.71
2018-03-20T15:42:28.461Z,988.71
2018-03-20T15:43:28.462Z,988.74
2018-03-20T15:44:28.303Z,988.56
2018-03-20T15:45:28.216Z,988.64
2018-03-20T15:46:28.144Z,988.64
2018-03-20T15:47:28.086Z,988.62
2018-03-20T15:48:28.000Z,988.66
2018-03-20T15:49:27.920Z,988.66
2018-03-20T15:50:27.905Z,988.65
2018-03-20T15:51:27.782Z,988.68
2018-03-20T15:52:27.701Z,988.42
2018-03-20T15:53:27.748Z,988.67
2018-03-20T15:54:27.573Z,988.44
2018-03-20T15:55:27.476Z,988.60
2018-03-20T15:56:27.400Z,988.60
2018-03-20T15:57:27.364Z,988.57
2018-03-20T15:58:27.254Z,988.42
2018-03-20T15:59:27.186Z,988.38
2018-03-20T16:00:27.117Z,988.43
2018-03-20T16:01:27.031Z,988.47
2018-03-20T16:02:26.985Z,988.50
2018-03-20T16:03:26.886Z,988.24
2018-03-20T16:04:26.830Z,988.37
2018-03-20T16:05:26.784Z,988.47
2018-03-20T16:06:26.771Z,988.34
2018-03-20T16:07:26.591Z,988.49
2018-03-20T16:08:26.516Z,988.32
2018-03-20T16:09:26.459Z,988.42
2018-03-20T16:10:26.383Z,988.47
2018-03-20T16:11:26.297Z,988.49
2018-03-20T16:12:26.218Z,988.56
2018-03-20T16:13:26.150Z,988.58
2018-03-20T16:14:26.072Z,988.59
2018-03-20T16:15:25.994Z,988.41
2018-03-20T16:16:25.936Z,988.38
2018-03-20T16:17:25.875Z,988.55
2018-03-20T16:18:25.807Z,988.69
2018-03-20T16:19:25.706Z,988.71
2018-03-20T16:20:25.628Z,988.68
2018-03-20T16:21:25.570Z,988.48
2018-03-20T16:22:25.498Z,988.74
2018-03-20T16:23:25.408Z,988.85
2018-03-20T16:24:25.346Z,988.80
2018-03-20T16:25:25.272Z,988.82
2018-03-20T16:26:25.185Z,988.70
2018-03-20T16:27:25.114Z,988.81
2018-03-20T16:28:25.050Z,988.74
2018-03-20T16:29:25.008Z,988.71
2018-03-20T16:30:24.905Z,988.74
2018-03-20T16:31:24.829Z,988.82
2018-03-20T16:32:24.742Z,989.03
2018-03-20T16:33:41.839Z,988.90
2018-03-20T16:34:41.746Z,989.05
2018-03-20T16:36:36.973Z,989.23
2018-03-20T16:37:36.876Z,989.11
2018-03-20T16:39:32.158Z,989.47
2018-03-20T16:40:32.037Z,990.04
2018-03-20T16:42:27.531Z,989.74
2018-03-20T16:43:27.264Z,989.53
2018-03-20T16:45:22.576Z,989.78
2018-03-20T16:46:22.355Z,989.72
2018-03-20T16:48:17.654Z,989.78
2018-03-20T16:49:17.534Z,989.66
2018-03-20T16:51:12.756Z,989.79
2018-03-20T16:52:12.668Z,990.02
2018-03-20T16:54:07.976Z,990.08
2018-03-20T16:55:07.862Z,990.06
2018-03-20T16:57:03.127Z,989.97
2018-03-20T16:58:03.029Z,989.92
2018-03-20T16:59:58.342Z,989.94
2018-03-20T17:00:58.232Z,989.90
2018-03-20T17:02:53.492Z,990.09
2018-03-20T17:03:53.404Z,990.03
2018-03-20T17:05:48.646Z,990.19
2018-03-20T17:06:48.542Z,990.06
2018-03-20T17:08:43.841Z,990.06
2018-03-20T17:09:43.716Z,989.89
2018-03-20T17:11:38.991Z,990.06
2018-03-20T17:12:38.879Z,990.04
2018-03-20T17:14:34.164Z,989.96
2018-03-20T17:15:34.083Z,990.35
2018-03-20T17:17:30.178Z,990.11
2018-03-20T17:18:30.072Z,990.10
2018-03-20T17:20:25.366Z,990.11
2018-03-20T17:21:25.246Z,989.98
2018-03-20T17:23:20.540Z,990.02
2018-03-20T17:24:20.434Z,990.22
2018-03-20T17:26:15.698Z,990.17
2018-03-20T17:27:15.611Z,990.18
2018-03-20T17:29:10.848Z,989.80
2018-03-20T17:30:10.736Z,990.40
2018-03-20T17:32:06.033Z,990.33
2018-03-20T17:33:05.909Z,990.38
2018-03-20T17:35:02.044Z,990.32
2018-03-20T17:36:01.914Z,990.31
2018-03-20T17:37:58.020Z,990.46
2018-03-20T17:38:57.946Z,990.60
2018-03-20T17:40:53.274Z,990.57
2018-03-20T17:41:53.115Z,990.55
2018-03-20T17:43:48.366Z,990.81
2018-03-20T17:44:48.295Z,990.85
2018-03-20T17:46:43.562Z,990.98
2018-03-20T17:47:43.433Z,990.79
2018-03-20T17:49:38.694Z,991.03
2018-03-20T17:50:38.572Z,990.77
2018-03-20T17:52:33.855Z,990.97
2018-03-20T17:53:33.758Z,991.04
2018-03-20T17:55:29.009Z,990.98
2018-03-20T17:56:28.886Z,990.98
2018-03-20T17:58:24.199Z,990.96
2018-03-20T17:59:24.080Z,990.93
2018-03-20T18:01:19.316Z,991.16
2018-03-20T18:02:19.239Z,990.82
2018-03-20T18:04:14.492Z,991.08
2018-03-20T18:05:14.402Z,991.12
2018-03-20T18:07:09.666Z,991.03
2018-03-20T18:08:09.577Z,991.06
2018-03-20T18:10:04.820Z,991.04
2018-03-20T18:11:04.727Z,991.04
2018-03-20T18:13:00.015Z,991.09
2018-03-20T18:13:59.898Z,991.22
2018-03-20T18:15:55.218Z,991.14
2018-03-20T18:16:55.114Z,991.25
2018-03-20T18:18:50.456Z,991.22
2018-03-20T18:19:50.291Z,991.29
2018-03-20T18:21:45.596Z,991.36
2018-03-20T18:22:45.469Z,991.39
2018-03-20T18:24:40.743Z,991.39
2018-03-20T18:25:40.596Z,991.47
2018-03-20T18:27:35.887Z,991.45
2018-03-20T18:28:35.782Z,991.58
2018-03-20T18:30:31.080Z,991.62
2018-03-20T18:31:30.955Z,991.60
2018-03-20T18:33:26.253Z,991.51
2018-03-20T18:34:26.112Z,991.61
2018-03-20T18:36:21.392Z,991.60
2018-03-20T18:37:21.302Z,991.76
2018-03-20T18:39:16.563Z,991.53
2018-03-20T18:40:16.438Z,991.65
2018-03-20T18:42:11.729Z,991.77
2018-03-20T18:43:11.602Z,991.71
2018-03-20T18:45:06.886Z,991.66
2018-03-20T18:46:06.781Z,991.73
2018-03-20T18:48:02.097Z,991.88
2018-03-20T18:49:01.944Z,991.90
2018-03-20T18:50:57.229Z,991.78
2018-03-20T18:51:57.112Z,991.75
2018-03-20T18:53:52.381Z,992.00
2018-03-20T18:54:52.272Z,992.00
2018-03-20T18:56:47.590Z,991.91
2018-03-20T18:57:47.461Z,992.09
2018-03-20T18:59:42.696Z,992.30
2018-03-20T19:00:37.678Z,992.18
2018-03-20T19:01:37.593Z,992.14
2018-03-20T19:03:32.882Z,992.19
2018-03-20T19:04:32.738Z,992.15
2018-03-20T19:06:28.000Z,992.22
2018-03-20T19:07:27.910Z,992.32
2018-03-20T19:09:23.184Z,992.52
2018-03-20T19:10:23.105Z,992.24
2018-03-20T19:12:18.343Z,992.22
2018-03-20T19:13:18.236Z,992.31
2018-03-20T19:15:13.528Z,992.37
2018-03-20T19:16:13.443Z,992.39
2018-03-20T19:18:08.712Z,992.40
2018-03-20T19:19:08.603Z,992.37
2018-03-20T19:21:03.856Z,992.38
2018-03-20T19:22:03.769Z,992.51
2018-03-20T19:23:59.042Z,992.39
2018-03-20T19:24:58.931Z,992.56
2018-03-20T19:26:54.225Z,992.49
2018-03-20T19:27:54.128Z,992.67
2018-03-20T19:29:49.404Z,992.51
2018-03-20T19:30:49.270Z,992.52
2018-03-20T19:32:45.460Z,992.58
2018-03-20T19:33:45.325Z,992.62
2018-03-20T19:35:40.575Z,992.50
2018-03-20T19:36:40.504Z,992.61
2018-03-20T19:38:35.770Z,992.78
2018-03-20T19:39:35.681Z,992.69
2018-03-20T19:41:32.478Z,992.80
2018-03-20T19:42:32.338Z,992.80
2018-03-20T19:44:27.629Z,992.71
2018-03-20T19:45:27.510Z,992.71
2018-03-20T19:47:23.665Z,992.92
2018-03-20T19:48:23.535Z,992.88
2018-03-20T19:49:23.475Z,992.87
2018-03-20T19:50:23.381Z,992.98
2018-03-20T19:51:23.319Z,993.01
2018-03-20T19:52:23.231Z,993.24
2018-03-20T19:53:23.152Z,992.98
2018-03-20T19:54:23.095Z,993.02
2018-03-20T19:55:22.997Z,993.08
2018-03-20T19:56:22.910Z,993.04
2018-03-20T19:57:22.859Z,993.09
2018-03-20T19:58:22.779Z,993.14
2018-03-20T19:59:22.703Z,993.02
2018-03-20T20:00:22.612Z,993.22
2018-03-20T20:01:22.554Z,993.29
2018-03-20T20:02:22.465Z,993.23
2018-03-20T20:03:22.384Z,993.28
2018-03-20T20:04:22.361Z,993.29
2018-03-20T20:05:22.287Z,993.18
2018-03-20T20:06:22.165Z,993.30
2018-03-20T20:07:22.075Z,993.25
2018-03-20T20:08:22.015Z,993.18
2018-03-20T20:09:21.931Z,993.30
2018-03-20T20:10:21.869Z,993.33
2018-03-20T20:11:21.778Z,993.40
2018-03-20T20:12:21.715Z,993.44
2018-03-20T20:13:21.636Z,993.47
2018-03-20T20:14:21.607Z,993.28
2018-03-20T20:15:21.472Z,993.48
2018-03-20T20:16:21.425Z,993.47
2018-03-20T20:17:21.328Z,993.53
2018-03-20T20:18:21.263Z,993.62
2018-03-20T20:19:21.168Z,993.79
2018-03-20T20:20:21.223Z,993.60
2018-03-20T20:21:21.078Z,993.68
2018-03-20T20:22:20.961Z,993.72
2018-03-20T20:23:20.885Z,993.82
2018-03-20T20:24:20.812Z,993.82
2018-03-20T20:25:20.734Z,993.83
2018-03-20T20:26:20.658Z,993.92
2018-03-20T20:27:20.584Z,993.80
2018-03-20T20:28:20.507Z,993.80
2018-03-20T20:29:20.418Z,993.67
2018-03-20T20:30:20.522Z,994.02
2018-03-20T20:31:20.295Z,993.62
2018-03-20T20:32:20.191Z,993.55
2018-03-20T20:33:20.149Z,993.68
2018-03-20T20:34:20.037Z,993.67
2018-03-20T20:35:19.978Z,993.69
2018-03-20T20:36:19.887Z,993.74
2018-03-20T20:37:19.820Z,993.73
2018-03-20T20:38:19.765Z,993.72
2018-03-20T20:39:19.657Z,993.59
2018-03-20T20:40:19.604Z,993.71
2018-03-20T20:41:19.569Z,993.82
2018-03-20T20:42:19.442Z,993.87
2018-03-20T20:43:19.374Z,993.88
2018-03-20T20:44:19.293Z,993.77
2018-03-20T20:45:19.223Z,993.92
2018-03-20T20:46:19.132Z,993.96
2018-03-20T20:47:19.072Z,993.83
2018-03-20T20:48:18.999Z,994.06
2018-03-20T20:49:18.917Z,993.94
2018-03-20T20:50:18.825Z,993.98
2018-03-20T20:51:18.751Z,994.02
2018-03-20T20:52:18.705Z,993.80
2018-03-20T20:53:18.616Z,994.03
2018-03-20T20:54:18.520Z,994.17
2018-03-20T20:55:18.453Z,994.13
2018-03-20T20:56:18.398Z,994.15
2018-03-20T20:57:18.321Z,994.09
2018-03-20T20:58:18.257Z,994.34
2018-03-20T20:59:18.168Z,994.21
2018-03-20T21:00:18.063Z,994.38
2018-03-20T21:01:18.006Z,994.34
2018-03-20T21:02:17.938Z,994.53
2018-03-20T21:03:17.847Z,994.44
2018-03-20T21:04:17.778Z,994.41
2018-03-20T21:05:17.708Z,994.49
2018-03-20T21:06:17.619Z,994.44
2018-03-20T21:07:17.569Z,994.50
2018-03-20T21:08:17.462Z,994.50
2018-03-20T21:09:17.393Z,994.50
2018-03-20T21:10:17.303Z,994.51
2018-03-20T21:11:17.234Z,994.56
2018-03-20T21:12:17.157Z,994.61
2018-03-20T21:13:17.093Z,994.71
2018-03-20T21:14:17.028Z,994.55
2018-03-20T21:15:16.934Z,994.60
2018-03-20T21:16:16.876Z,994.74
2018-03-20T21:17:16.803Z,994.60
2018-03-20T21:18:16.708Z,994.53
2018-03-20T21:20:50.822Z,994.71
2018-03-20T21:21:50.613Z,994.78
2018-03-20T21:23:45.871Z,994.86
2018-03-20T21:24:45.781Z,994.90
2018-03-20T21:26:41.057Z,994.87
2018-03-20T21:27:40.968Z,994.83
2018-03-20T21:29:36.218Z,995.03
2018-03-20T21:30:36.109Z,994.94
2018-03-20T21:32:31.580Z,994.88
2018-03-20T21:33:31.300Z,994.95
2018-03-20T21:35:26.539Z,994.90
2018-03-20T21:36:26.459Z,995.00
2018-03-20T21:38:21.745Z,994.96
2018-03-20T21:39:21.629Z,994.92
2018-03-20T21:41:16.904Z,994.92
2018-03-20T21:42:16.809Z,994.89
2018-03-20T21:44:12.077Z,994.89
2018-03-20T21:45:11.948Z,994.86
2018-03-20T21:47:07.243Z,994.88
2018-03-20T21:48:07.145Z,994.90
2018-03-20T21:50:03.259Z,994.97
2018-03-20T21:51:03.182Z,994.99
2018-03-20T21:52:58.464Z,995.03
2018-03-20T21:53:58.357Z,995.02
2018-03-20T21:55:53.641Z,995.03
2018-03-20T21:56:53.512Z,994.92
2018-03-20T21:58:48.759Z,994.97
2018-03-20T21:59:48.662Z,995.00
2018-03-20T22:01:44.796Z,995.00
2018-03-20T22:02:44.673Z,994.88
2018-03-20T22:04:39.898Z,994.94
2018-03-20T22:05:39.811Z,994.94
2018-03-20T22:07:35.128Z,994.77
2018-03-20T22:08:34.993Z,994.70
2018-03-20T22:10:30.259Z,994.65
2018-03-20T22:11:30.160Z,994.84
2018-03-20T22:13:26.235Z,994.80
2018-03-20T22:14:26.139Z,994.80
2018-03-20T22:16:21.436Z,994.71
2018-03-20T22:17:21.307Z,994.76
2018-03-20T22:19:16.640Z,994.71
2018-03-20T22:20:16.517Z,994.81
2018-03-20T22:22:11.767Z,994.82
2018-03-20T22:23:11.668Z,994.83
2018-03-20T22:25:06.968Z,994.70
2018-03-20T22:26:06.840Z,994.71
2018-03-20T22:28:02.129Z,994.76
2018-03-20T22:29:02.005Z,994.68
2018-03-20T22:30:57.248Z,994.78
2018-03-20T22:31:57.158Z,994.67
2018-03-20T22:33:52.512Z,994.70
2018-03-20T22:34:52.341Z,994.59
2018-03-20T22:36:47.604Z,994.69
2018-03-20T22:37:47.493Z,994.63
2018-03-20T22:39:42.787Z,994.60
2018-03-20T22:40:42.664Z,994.60
2018-03-20T22:42:37.937Z,994.63
2018-03-20T22:43:37.817Z,994.63
2018-03-20T22:45:33.077Z,994.79
2018-03-20T22:46:32.962Z,994.70
2018-03-20T22:48:28.254Z,994.86
2018-03-20T22:49:28.166Z,994.78
2018-03-20T22:51:23.482Z,994.75
2018-03-20T22:52:23.316Z,994.76
2018-03-20T22:54:18.617Z,994.59
2018-03-20T22:55:18.492Z,994.80
2018-03-20T22:57:13.780Z,994.82
2018-03-20T22:58:13.661Z,994.81
2018-03-20T23:00:09.773Z,994.67
2018-03-20T23:01:09.651Z,994.69
2018-03-20T23:03:04.956Z,994.74